Bushong, Kansas
Current Conditions -  °F | °C
As of 2:53 PM on Saturday 22 Nov 2014 (Local Time) from KEMP Reporting Station
Broken Clouds Broken Clouds  
Wind Chill: 60°   Ceiling: 4300
Heat Index: 60°   Visibility: 10mi
Dew Point: 54°   Wind: 18mph
Humidity: 80%   Direction: 180°S
Pressure: 29.77"   Gusts: 28mph
Location:  38.6329°N, 96.2407°W
Report Text: KEMP 222053Z AUTO 18016G24KT 10SM FEW018 BKN043 16/12 A2977 RMK AO2 SLP082 T01560122 56009
Loading
Personal Weather Stations






























Interactive Weather Map New forecast layout! Learn more

10-Day Weather Forecast

Advertisements
Track Severe Weather on mobile